Time;durP1;ratioP1;P1;durP2;ratioP2;P2;SDS_P1;SDS_P2;PMS_P1;PMS_P2;Temp;Humidity;BMP_temperature;BMP_pressure;BME280_temperature;BME280_humidity;BME280_pressure;Samples;Min_cycle;Max_cycle;Signal;HPM_P1;HPM_P2
2022/05/08 00:01:03;;;;;;;10.52;8.75;;;;;;;14.47;83.35;100778.22;5008579;28;20021;-68
2022/05/08 00:03:29;;;;;;;15.27;9.90;;;;;;;14.43;83.09;100780.38;5006698;28;20029;-66
2022/05/08 00:05:55;;;;;;;17.20;9.48;;;;;;;14.35;83.69;100779.41;5023084;28;20022;-66
2022/05/08 00:08:20;;;;;;;14.57;10.00;;;;;;;14.30;84.09;100781.69;5008580;28;20038;-67
2022/05/08 00:10:46;;;;;;;12.68;9.80;;;;;;;14.25;84.19;100782.13;5008077;28;20040;-67
2022/05/08 00:13:11;;;;;;;13.55;9.38;;;;;;;14.19;83.93;100771.06;5008433;28;20037;-66
2022/05/08 00:15:37;;;;;;;14.82;10.65;;;;;;;14.12;85.10;100770.78;5007901;28;20061;-67
2022/05/08 00:18:03;;;;;;;17.42;10.07;;;;;;;14.04;84.58;100767.13;5007749;28;20026;-66
2022/05/08 00:20:29;;;;;;;13.57;10.73;;;;;;;14.02;84.85;100769.13;5008151;28;20079;-67
2022/05/08 00:22:54;;;;;;;12.50;10.43;;;;;;;13.97;85.14;100772.25;5007979;28;20061;-68
2022/05/08 00:25:20;;;;;;;16.17;10.35;;;;;;;13.90;85.94;100763.06;5008335;28;20026;-68
2022/05/08 00:27:45;;;;;;;18.95;11.30;;;;;;;13.89;86.50;100763.19;5007788;28;20144;-68
2022/05/08 00:30:11;;;;;;;19.33;11.20;;;;;;;13.73;86.07;100742.19;5007963;28;20029;-68
2022/05/08 00:32:37;;;;;;;17.65;11.15;;;;;;;13.78;86.14;100756.09;5008062;28;20078;-67
2022/05/08 00:35:03;;;;;;;15.38;10.95;;;;;;;13.71;86.18;100749.59;5008029;28;20079;-67
2022/05/08 00:37:28;;;;;;;16.73;12.00;;;;;;;13.73;86.73;100761.94;5007826;28;20368;-64
2022/05/08 00:39:54;;;;;;;20.58;11.93;;;;;;;13.69;86.92;100762.34;5005526;28;20083;-65
2022/05/08 00:42:19;;;;;;;19.65;11.38;;;;;;;13.65;87.63;100761.78;5006680;28;20041;-65
2022/05/08 00:44:45;;;;;;;19.02;12.10;;;;;;;13.52;87.49;100742.34;5006920;28;20387;-66
2022/05/08 00:47:11;;;;;;;15.70;11.93;;;;;;;13.60;87.80;100755.13;5007279;28;20036;-67
2022/05/08 00:49:36;;;;;;;19.05;11.73;;;;;;;13.52;86.84;100757.69;5007998;28;20037;-67
2022/05/08 00:52:02;;;;;;;19.58;12.48;;;;;;;13.51;87.31;100761.38;5007681;28;20480;-66
2022/05/08 00:54:27;;;;;;;21.10;12.95;;;;;;;13.36;87.38;100738.56;5007861;28;20411;-66
2022/05/08 00:56:56;;;;;;;17.73;11.70;;;;;;;13.34;87.70;100754.88;5007405;28;20014;-65
2022/05/08 00:59:21;;;;;;;15.32;11.27;;;;;;;13.43;88.51;100777.41;5007483;28;20026;-66
2022/05/08 01:01:47;;;;;;;12.48;10.88;;;;;;;13.47;91.07;100773.44;5007154;28;20028;-66
2022/05/08 01:04:12;;;;;;;17.23;11.90;;;;;;;13.47;92.67;100763.50;5007454;28;20046;-66
2022/05/08 01:06:38;;;;;;;15.02;11.45;;;;;;;13.57;93.28;100777.84;5007454;28;20037;-67
2022/05/08 01:09:03;;;;;;;14.52;10.63;;;;;;;13.60;93.16;100776.69;5007518;28;20487;-67
2022/05/08 01:11:29;;;;;;;13.55;11.57;;;;;;;13.63;93.07;100779.97;5006875;28;20042;-66
2022/05/08 01:13:54;;;;;;;13.65;10.90;;;;;;;13.64;92.58;100776.25;5008288;28;20037;-66
2022/05/08 01:16:21;;;;;;;12.32;10.57;;;;;;;13.68;92.40;100787.63;5008310;28;20037;-66
2022/05/08 01:18:49;;;;;;;11.50;10.27;;;;;;;13.66;92.25;100782.38;5007944;28;20084;-64
2022/05/08 01:21:22;;;;;;;13.07;11.15;;;;;;;13.58;92.33;100770.59;5008350;28;20030;-65
2022/05/08 01:23:47;;;;;;;13.40;10.80;;;;;;;13.61;93.00;100786.50;5008148;28;20099;-65
2022/05/08 01:26:19;;;;;;;13.68;10.60;;;;;;;13.59;91.83;100788.47;5008234;28;20119;-66
2022/05/08 01:28:45;;;;;;;18.20;11.70;;;;;;;13.55;91.08;100792.44;5008245;28;20029;-66
2022/05/08 01:31:10;;;;;;;18.48;11.88;;;;;;;13.50;90.50;100784.78;5008207;28;20120;-66
2022/05/08 01:33:36;;;;;;;16.85;10.52;;;;;;;13.45;89.52;100780.81;5008094;28;20026;-66
2022/05/08 01:36:01;;;;;;;14.55;10.50;;;;;;;13.42;89.55;100786.50;5007975;28;20025;-66
2022/05/08 01:38:27;;;;;;;16.17;10.07;;;;;;;13.20;90.97;100759.81;5006604;28;20033;-66
2022/05/08 01:40:52;;;;;;;13.43;11.00;;;;;;;13.35;90.15;100790.75;5008180;28;20048;-66
2022/05/08 01:43:18;;;;;;;17.90;10.70;;;;;;;13.31;89.58;100781.22;5007254;28;20022;-66
2022/05/08 01:45:43;;;;;;;17.88;11.38;;;;;;;13.24;89.89;100788.16;5006150;28;20147;-67
2022/05/08 01:48:25;;;;;;;15.38;11.18;;;;;;;13.21;88.77;100802.78;5007965;28;20438;-66
2022/05/08 01:50:53;;;;;;;16.50;12.00;;;;;;;13.01;89.66;100774.13;5006144;28;20053;-66
2022/05/08 01:53:20;;;;;;;15.68;12.02;;;;;;;13.09;90.02;100795.81;5007510;28;20101;-66
2022/05/08 01:55:57;;;;;;;14.45;11.98;;;;;;;12.95;90.54;100787.22;5007761;28;20041;-66
2022/05/08 01:58:27;;;;;;;16.80;13.10;;;;;;;12.96;90.80;100797.88;5011004;28;20494;-66
2022/05/08 02:00:55;;;;;;;14.18;11.77;;;;;;;12.90;91.54;100794.88;5011034;28;20033;-66
2022/05/08 02:03:25;;;;;;;16.02;12.45;;;;;;;12.88;91.90;100805.78;5010074;28;20165;-67
2022/05/08 02:05:51;;;;;;;15.70;12.30;;;;;;;12.80;92.34;100800.22;5011076;28;20026;-65
2022/05/08 02:08:17;;;;;;;15.10;12.18;;;;;;;12.76;92.25;100809.56;5011001;28;20061;-66
2022/05/08 02:10:42;;;;;;;16.33;11.98;;;;;;;12.75;92.60;100810.56;5011180;28;20033;-66
2022/05/08 02:13:09;;;;;;;15.02;12.43;;;;;;;12.72;93.47;100804.59;5010559;28;20034;-65
2022/05/08 02:15:36;;;;;;;17.00;11.85;;;;;;;12.65;93.85;100798.06;5010636;28;20026;-65
2022/05/08 02:18:06;;;;;;;20.67;13.63;;;;;;;12.61;94.09;100799.31;5010160;28;20026;-66
2022/05/08 02:20:32;;;;;;;17.58;11.93;;;;;;;12.49;94.66;100781.56;5010359;28;20018;-67
2022/05/08 02:22:58;;;;;;;15.95;12.45;;;;;;;12.61;93.58;100799.31;5010013;28;20109;-66
2022/05/08 02:25:25;;;;;;;16.00;13.00;;;;;;;12.56;94.09;100786.28;5009703;28;20037;-66
2022/05/08 02:27:51;;;;;;;19.80;12.52;;;;;;;12.53;94.46;100789.22;5010392;28;20376;-66
2022/05/08 02:30:19;;;;;;;14.23;12.18;;;;;;;12.54;94.14;100799.00;5010483;28;20040;-66
2022/05/08 02:32:45;;;;;;;15.82;12.18;;;;;;;12.53;94.18;100802.69;5010891;28;20044;-66
2022/05/08 02:35:11;;;;;;;15.90;12.90;;;;;;;12.50;94.22;100797.56;5010760;28;20034;-67
2022/05/08 02:37:38;;;;;;;18.50;13.55;;;;;;;12.50;94.27;100794.03;5010462;28;20036;-66
2022/05/08 02:40:06;;;;;;;17.98;12.77;;;;;;;12.47;94.75;100791.59;5010475;28;20072;-66
2022/05/08 02:42:32;;;;;;;17.00;12.00;;;;;;;12.39;93.86;100776.16;5010445;28;20670;-66
2022/05/08 02:44:58;;;;;;;13.40;11.93;;;;;;;12.39;93.83;100795.00;5010540;28;20113;-66
2022/05/08 02:47:23;;;;;;;15.50;12.57;;;;;;;12.42;93.55;100793.88;5010684;28;20038;-66
2022/05/08 02:49:49;;;;;;;17.00;13.10;;;;;;;12.40;94.48;100802.06;5010130;28;20030;-67
2022/05/08 02:52:14;;;;;;;14.52;12.18;;;;;;;12.36;94.15;100800.63;5010336;28;20036;-66
2022/05/08 02:54:40;;;;;;;17.42;13.23;;;;;;;12.23;94.58;100778.50;5010958;28;20103;-66
2022/05/08 02:59:50;;;;;;;18.42;13.65;;;;;;;12.21;95.51;100787.66;5010272;28;20558;-66
2022/05/08 03:02:16;;;;;;;16.88;12.80;;;;;;;12.29;95.79;100802.13;5010353;28;20112;-66
2022/05/08 03:04:42;;;;;;;16.55;13.00;;;;;;;12.32;96.00;100798.34;5008994;28;20116;-65
2022/05/08 03:07:07;;;;;;;18.85;13.18;;;;;;;12.25;96.24;100786.44;5009751;28;20124;-66
2022/05/08 03:09:33;;;;;;;18.08;13.90;;;;;;;12.36;96.84;100806.03;5010427;28;20041;-66
2022/05/08 03:11:58;;;;;;;14.95;11.85;;;;;;;12.33;97.24;100789.28;5008893;28;20042;-66
2022/05/08 03:14:24;;;;;;;18.42;13.02;;;;;;;12.37;97.64;100796.94;5010780;28;20053;-66
2022/05/08 03:16:50;;;;;;;18.42;12.98;;;;;;;12.38;97.69;100797.81;5009627;28;20109;-66
2022/05/08 03:19:16;;;;;;;16.05;12.77;;;;;;;12.29;98.56;100782.47;5009736;28;20345;-66
2022/05/08 03:21:42;;;;;;;16.67;13.15;;;;;;;12.37;98.37;100796.09;5010349;28;20014;-66
2022/05/08 03:24:08;;;;;;;17.52;13.10;;;;;;;12.28;98.30;100788.84;5009969;28;20182;-66
2022/05/08 03:26:34;;;;;;;17.67;12.57;;;;;;;12.36;98.50;100799.78;5010159;28;20060;-67
2022/05/08 03:28:59;;;;;;;14.80;12.70;;;;;;;12.29;97.97;100787.84;5010168;28;20033;-66
2022/05/08 03:31:25;;;;;;;17.10;13.07;;;;;;;12.36;98.25;100797.09;5010249;28;20398;-66
2022/05/08 03:33:51;;;;;;;19.23;13.68;;;;;;;12.36;97.88;100802.47;5009478;28;20072;-66
2022/05/08 03:36:16;;;;;;;18.73;14.38;;;;;;;12.28;98.17;100781.63;5009610;28;20112;-67
2022/05/08 03:38:46;;;;;;;17.92;13.65;;;;;;;12.31;98.79;100792.09;5009533;28;20105;-66
2022/05/08 03:41:15;;;;;;;18.42;13.85;;;;;;;12.21;99.28;100776.91;5008304;28;20026;-67
2022/05/08 03:43:45;;;;;;;16.98;12.40;;;;;;;12.41;98.95;100809.13;5009490;28;20121;-67
2022/05/08 03:46:13;;;;;;;22.50;13.75;;;;;;;12.34;99.82;100793.66;5009348;28;20164;-67
2022/05/08 03:48:39;;;;;;;17.45;13.25;;;;;;;12.45;99.69;100807.03;5009277;28;20030;-66
2022/05/08 03:51:04;;;;;;;14.35;12.80;;;;;;;12.44;99.87;100806.19;5009350;28;20040;-67
2022/05/08 03:53:30;;;;;;;14.82;13.30;;;;;;;12.26;100.00;100764.78;5009770;28;20030;-67
2022/05/08 03:55:55;;;;;;;16.02;13.43;;;;;;;12.56;100.00;100802.41;5009797;28;20108;-67
2022/05/08 03:58:21;;;;;;;17.17;13.75;;;;;;;12.56;100.00;100812.31;5009878;28;20022;-67
2022/05/08 04:00:46;;;;;;;16.33;13.52;;;;;;;12.67;100.00;100814.94;5009739;28;20030;-67
2022/05/08 04:03:12;;;;;;;17.20;14.20;;;;;;;12.74;100.00;100818.78;5005359;28;20022;-68
2022/05/08 04:05:37;;;;;;;16.88;13.65;;;;;;;12.80;100.00;100816.38;5007029;28;20033;-67
2022/05/08 04:08:03;;;;;;;20.65;14.27;;;;;;;12.88;100.00;100821.09;5009993;28;20050;-67
2022/05/08 04:10:28;;;;;;;15.63;13.88;;;;;;;12.89;100.00;100810.19;5010309;28;20038;-68
2022/05/08 04:12:54;;;;;;;16.70;12.48;;;;;;;13.06;100.00;100823.00;5010161;28;20042;-68
2022/05/08 04:18:03;;;;;;;16.23;13.48;;;;;;;13.27;100.00;100821.09;5009677;28;20060;-65
2022/05/08 04:20:29;;;;;;;16.45;13.07;;;;;;;13.39;100.00;100828.03;5009658;28;20065;-66
2022/05/08 04:25:38;;;;;;;18.65;12.50;;;;;;;13.59;99.01;100818.13;5010052;28;20052;-66
2022/05/08 04:28:04;;;;;;;17.45;13.05;;;;;;;13.73;99.07;100828.47;4997867;28;20551;-66
2022/05/08 04:30:30;;;;;;;15.77;13.38;;;;;;;13.77;98.62;100822.66;4995160;28;20036;-66
2022/05/08 04:32:55;;;;;;;14.80;12.63;;;;;;;13.93;97.58;100830.16;4990338;28;20500;-66
2022/05/08 04:35:21;;;;;;;14.70;12.15;;;;;;;14.09;97.07;100829.59;5007227;28;20022;-66
2022/05/08 04:37:46;;;;;;;12.35;11.10;;;;;;;14.14;96.48;100828.16;4999116;28;20026;-66
2022/05/08 04:40:12;;;;;;;16.30;11.93;;;;;;;14.28;95.55;100835.81;4989870;28;20105;-66
2022/05/08 04:42:37;;;;;;;13.25;11.45;;;;;;;14.39;95.16;100840.19;5001990;28;20029;-66
2022/05/08 04:45:03;;;;;;;14.52;11.48;;;;;;;14.42;94.43;100824.56;5001863;28;20391;-66
2022/05/08 04:47:29;;;;;;;14.05;11.18;;;;;;;14.47;94.19;100826.81;4989826;28;20473;-67
2022/05/08 04:49:54;;;;;;;13.10;11.05;;;;;;;14.65;93.49;100836.69;4989576;28;20054;-67
2022/05/08 04:52:20;;;;;;;13.25;11.82;;;;;;;14.61;93.27;100820.94;4989739;28;20023;-66
2022/05/08 04:54:45;;;;;;;12.63;11.02;;;;;;;14.82;92.89;100826.94;4988399;28;20077;-67
2022/05/08 04:57:11;;;;;;;14.20;10.18;;;;;;;15.00;92.65;100842.19;4987723;28;20029;-67
2022/05/08 04:59:36;;;;;;;15.00;11.20;;;;;;;15.08;92.15;100847.72;4989591;28;20040;-67
2022/05/08 05:02:02;;;;;;;11.32;10.23;;;;;;;15.22;91.04;100849.91;4989866;28;20022;-67
2022/05/08 05:04:28;;;;;;;13.48;9.93;;;;;;;15.31;90.16;100846.31;5001930;28;20034;-67
2022/05/08 05:06:54;;;;;;;11.70;10.25;;;;;;;15.46;89.48;100850.22;5008767;28;20054;-68
2022/05/08 05:09:19;;;;;;;13.02;9.90;;;;;;;15.60;88.93;100860.50;5009289;28;20068;-67
2022/05/08 05:11:45;;;;;;;12.05;9.73;;;;;;;15.77;88.29;100862.34;5008911;28;20025;-67
2022/05/08 05:14:10;;;;;;;10.93;9.85;;;;;;;15.93;87.67;100854.38;5009040;28;20148;-66
2022/05/08 05:16:35;;;;;;;12.77;10.60;;;;;;;16.06;86.94;100856.72;5007501;28;20022;-67
2022/05/08 05:19:01;;;;;;;14.75;10.55;;;;;;;16.26;86.08;100855.53;5009256;28;20037;-66
2022/05/08 05:21:26;;;;;;;11.93;10.73;;;;;;;16.41;85.00;100862.03;5009064;28;20026;-67
2022/05/08 05:23:52;;;;;;;11.95;10.70;;;;;;;16.38;83.73;100837.16;5008851;28;20084;-66
2022/05/08 05:26:17;;;;;;;11.13;9.82;;;;;;;16.60;82.84;100861.03;5008512;28;20041;-67
2022/05/08 05:28:44;;;;;;;12.35;11.10;;;;;;;16.67;82.75;100849.38;5007432;28;20025;-66
2022/05/08 05:31:11;;;;;;;11.55;10.38;;;;;;;16.82;82.30;100863.16;5010427;28;20037;-66
2022/05/08 05:33:36;;;;;;;13.77;11.18;;;;;;;16.91;81.63;100863.06;5012867;28;20068;-66
2022/05/08 05:36:02;;;;;;;14.55;11.00;;;;;;;17.02;81.01;100862.78;5012829;28;20049;-67
2022/05/08 05:38:27;;;;;;;12.82;10.23;;;;;;;16.99;80.48;100854.97;5012563;28;20033;-66
2022/05/08 05:40:53;;;;;;;12.38;10.75;;;;;;;17.05;80.47;100851.59;5010699;28;20034;-66
2022/05/08 05:43:18;;;;;;;18.45;10.85;;;;;;;17.16;79.86;100869.44;5012519;28;20041;-66
2022/05/08 05:45:44;;;;;;;14.35;10.23;;;;;;;17.12;80.24;100841.81;5012584;28;20518;-67
2022/05/08 05:48:09;;;;;;;12.38;10.13;;;;;;;17.29;80.44;100864.41;5012250;28;20036;-66
2022/05/08 05:50:35;;;;;;;11.40;10.30;;;;;;;17.40;80.09;100864.94;5012825;28;20099;-67
2022/05/08 05:53:00;;;;;;;13.88;9.98;;;;;;;17.45;79.35;100856.34;5012355;28;20083;-67
2022/05/08 05:55:26;;;;;;;12.38;10.15;;;;;;;17.59;78.61;100863.84;5012252;28;20061;-66
2022/05/08 05:57:51;;;;;;;10.80;9.63;;;;;;;17.66;77.76;100867.56;5012193;28;20033;-67
2022/05/08 06:00:18;;;;;;;11.15;9.82;;;;;;;17.77;78.30;100856.44;5012329;28;20407;-66
2022/05/08 06:02:45;;;;;;;13.60;10.93;;;;;;;17.85;77.61;100870.84;5007160;28;20021;-68
2022/05/08 06:05:12;;;;;;;13.43;9.68;;;;;;;17.92;77.38;100857.44;5009458;28;20037;-67
2022/05/08 06:07:39;;;;;;;12.10;10.10;;;;;;;18.05;76.55;100864.06;5008329;28;20072;-67
2022/05/08 06:10:07;;;;;;;11.77;9.85;;;;;;;18.01;75.19;100849.16;5007891;28;20057;-67
2022/05/08 06:12:33;;;;;;;11.05;9.40;;;;;;;18.16;74.54;100867.47;5009491;28;20072;-67
2022/05/08 06:14:59;;;;;;;11.00;8.98;;;;;;;18.10;73.82;100861.69;5008061;28;20081;-66
2022/05/08 06:17:24;;;;;;;9.35;8.35;;;;;;;18.21;73.80;100867.81;5009718;28;20029;-67
2022/05/08 06:19:50;;;;;;;8.75;7.85;;;;;;;18.26;73.85;100871.72;5009119;28;20156;-67
2022/05/08 06:22:15;;;;;;;10.10;7.30;;;;;;;18.31;73.18;100863.88;5009194;28;20038;-67
2022/05/08 06:24:41;;;;;;;10.00;7.78;;;;;;;18.36;72.40;100866.09;5009158;28;20042;-66
2022/05/08 06:27:07;;;;;;;7.65;6.68;;;;;;;18.40;73.11;100865.63;5006931;28;20042;-67
2022/05/08 06:29:33;;;;;;;7.07;6.47;;;;;;;18.52;72.84;100866.09;5009481;28;20029;-67
2022/05/08 06:31:59;;;;;;;7.70;6.95;;;;;;;18.56;72.57;100862.00;5008986;28;20099;-67
2022/05/08 06:34:26;;;;;;;9.32;7.57;;;;;;;18.61;71.85;100852.34;5008455;28;20029;-67
2022/05/08 06:36:52;;;;;;;9.18;7.55;;;;;;;18.80;71.56;100873.69;5008869;28;20053;-67
2022/05/08 06:39:17;;;;;;;8.95;7.40;;;;;;;19.01;71.24;100884.84;5007196;28;20029;-67
2022/05/08 06:41:43;;;;;;;7.57;6.70;;;;;;;19.10;70.69;100872.94;5008113;28;20026;-66
2022/05/08 06:44:09;;;;;;;9.55;6.80;;;;;;;19.19;70.41;100871.84;5008460;28;20045;-66
2022/05/08 06:46:36;;;;;;;7.97;7.18;;;;;;;19.35;68.49;100877.25;5009438;28;20038;-67
2022/05/08 06:49:07;;;;;;;9.07;7.25;;;;;;;19.41;67.75;100862.94;5008022;28;20049;-67
2022/05/08 06:51:34;;;;;;;8.70;6.85;;;;;;;19.63;66.87;100886.63;5008997;28;20029;-68
2022/05/08 06:54:00;;;;;;;9.15;5.95;;;;;;;19.74;66.87;100877.22;5008586;28;20136;-68
2022/05/08 06:56:26;;;;;;;8.15;6.78;;;;;;;19.81;66.27;100878.19;5008650;28;20061;-67
2022/05/08 07:01:38;;;;;;;8.63;6.90;;;;;;;19.97;65.16;100889.81;5009020;28;20502;-68
2022/05/08 07:04:08;;;;;;;7.53;6.82;;;;;;;19.98;63.97;100880.63;5008366;28;20373;-68
2022/05/08 07:06:37;;;;;;;10.27;7.70;;;;;;;20.01;63.60;100885.69;5008755;28;20110;-67
2022/05/08 07:09:04;;;;;;;9.07;7.00;;;;;;;19.98;63.87;100875.16;5008006;28;20054;-67
2022/05/08 07:11:32;;;;;;;8.68;7.22;;;;;;;19.93;63.27;100866.69;5023368;28;20041;-67
2022/05/08 07:13:59;;;;;;;9.65;7.18;;;;;;;20.03;62.91;100883.63;5008171;28;20050;-66
2022/05/08 07:16:25;;;;;;;8.57;7.05;;;;;;;20.04;62.43;100879.91;5008773;28;20113;-67
2022/05/08 07:18:51;;;;;;;8.15;7.05;;;;;;;20.07;62.40;100886.84;5008162;28;20042;-67
2022/05/08 07:21:19;;;;;;;9.32;7.78;;;;;;;20.07;62.26;100881.41;5009091;28;20033;-67
2022/05/08 07:23:44;;;;;;;8.30;7.15;;;;;;;20.05;62.13;100886.16;5009119;28;20029;-68
2022/05/08 07:26:09;;;;;;;7.97;7.07;;;;;;;19.98;62.58;100871.59;5008420;28;20092;-67
2022/05/08 07:28:35;;;;;;;8.70;7.45;;;;;;;20.05;62.58;100892.47;5009259;28;20064;-68
2022/05/08 07:31:02;;;;;;;8.52;7.25;;;;;;;20.06;62.84;100887.88;5008509;28;20046;-66
2022/05/08 07:33:29;;;;;;;9.18;7.72;;;;;;;20.08;62.52;100888.53;5008709;28;20474;-68
2022/05/08 07:36:12;;;;;;;7.72;6.75;;;;;;;20.12;62.51;100892.63;5007744;28;20464;-67
2022/05/08 07:38:45;;;;;;;7.90;7.10;;;;;;;20.16;61.93;100892.06;5008501;28;20040;-66
2022/05/08 07:41:12;;;;;;;10.93;7.40;;;;;;;20.14;60.73;100893.28;5007379;28;20062;-67
2022/05/08 07:43:38;;;;;;;9.15;7.38;;;;;;;20.19;60.64;100888.16;5008433;28;20045;-66
2022/05/08 07:46:04;;;;;;;8.13;6.60;;;;;;;20.27;61.00;100895.38;5004730;28;20625;-68
2022/05/08 07:48:30;;;;;;;8.05;7.25;;;;;;;20.17;60.85;100868.41;5008032;28;20061;-67
2022/05/08 07:50:59;;;;;;;8.80;6.85;;;;;;;20.39;59.99;100900.25;5006060;28;20030;-66
2022/05/08 07:53:26;;;;;;;9.57;7.50;;;;;;;20.40;59.61;100896.47;5009023;28;20499;-67
2022/05/08 07:55:54;;;;;;;9.55;7.47;;;;;;;20.40;59.72;100896.47;5007105;28;20038;-67
2022/05/08 07:58:23;;;;;;;9.82;6.88;;;;;;;20.42;59.31;100897.16;5008636;28;20026;-68
2022/05/08 08:00:53;;;;;;;8.52;7.38;;;;;;;20.42;59.34;100894.44;5008489;28;20041;-66
2022/05/08 08:03:19;;;;;;;8.20;7.40;;;;;;;20.48;58.92;100901.00;5008827;28;20084;-67
2022/05/08 08:05:45;;;;;;;10.57;7.50;;;;;;;20.44;59.13;100895.06;5008949;28;20099;-67
2022/05/08 08:08:10;;;;;;;8.05;7.03;;;;;;;20.49;59.28;100897.25;5008770;28;20057;-66
2022/05/08 08:10:36;;;;;;;8.15;7.30;;;;;;;20.58;59.16;100898.88;5007275;28;20036;-66
2022/05/08 08:13:01;;;;;;;8.55;7.05;;;;;;;20.67;58.81;100901.31;5008264;28;20035;-66
2022/05/08 08:15:27;;;;;;;10.75;7.97;;;;;;;20.72;58.90;100904.34;5008271;28;20040;-67
2022/05/08 08:17:52;;;;;;;9.07;7.78;;;;;;;20.73;58.29;100880.66;5008490;28;20033;-67
2022/05/08 08:20:18;;;;;;;7.78;6.97;;;;;;;20.92;58.80;100893.75;5023405;28;20062;-67
2022/05/08 08:22:43;;;;;;;8.23;7.43;;;;;;;21.16;58.52;100909.88;5008900;28;20462;-65
2022/05/08 08:25:09;;;;;;;8.65;7.10;;;;;;;21.26;57.90;100894.06;5009387;28;20036;-67
2022/05/08 08:27:35;;;;;;;8.20;7.07;;;;;;;21.51;57.80;100906.38;5009246;28;20065;-66
2022/05/08 08:30:01;;;;;;;8.68;7.75;;;;;;;21.64;55.42;100903.78;5009198;28;20034;-66
2022/05/08 08:32:27;;;;;;;11.18;6.97;;;;;;;21.65;54.80;100891.81;5009510;28;20088;-67
2022/05/08 08:34:55;;;;;;;12.90;7.63;;;;;;;21.66;53.73;100869.78;5009361;28;20534;-67
2022/05/08 08:37:21;;;;;;;8.38;7.45;;;;;;;21.99;54.21;100909.28;5009391;28;20045;-68
2022/05/08 08:39:46;;;;;;;8.90;7.13;;;;;;;22.08;53.78;100910.84;5009182;28;20357;-66
2022/05/08 08:42:31;;;;;;;29.38;20.92;;;;;;;22.17;53.49;100909.69;5007154;28;20025;-66
2022/05/08 08:47:52;;;;;;;9.13;7.03;;;;;;;22.42;53.76;100908.22;4999651;28;20091;-66
2022/05/08 08:50:20;;;;;;;8.70;6.47;;;;;;;22.42;53.57;100892.88;5008689;28;20033;-67
2022/05/08 08:52:47;;;;;;;7.43;6.50;;;;;;;22.60;52.55;100905.03;5008989;28;20502;-67
2022/05/08 08:55:17;;;;;;;8.40;6.65;;;;;;;22.65;52.52;100882.56;5007397;28;20057;-65
2022/05/08 09:22:00;;;;;;;6.32;5.10;;;;;;;23.52;50.96;100911.97;5128639;27;20382;-66
2022/05/08 09:24:25;;;;;;;8.10;5.75;;;;;;;23.63;50.50;100900.47;5128178;27;20067;-67
2022/05/08 09:27:12;;;;;;;10.35;8.18;;;;;;;23.49;50.27;100858.47;5127864;27;20490;-67
2022/05/08 09:29:37;;;;;;;8.23;6.78;;;;;;;23.72;51.00;100889.09;5128066;27;20019;-67
2022/05/08 09:32:03;;;;;;;7.57;6.88;;;;;;;23.76;50.09;100889.56;5127909;27;20019;-65
2022/05/08 09:46:23;;;;;;;7.55;6.28;;;;;;;24.24;46.43;100888.41;5150015;27;20389;-68
2022/05/08 09:48:49;;;;;;;5.65;5.05;;;;;;;24.26;46.85;100895.38;5149328;27;20446;-68
2022/05/08 09:51:16;;;;;;;9.90;6.15;;;;;;;24.31;47.00;100892.84;5149422;27;20051;-68
2022/05/08 09:53:43;;;;;;;7.68;6.30;;;;;;;24.30;46.62;100877.44;5148915;27;20025;-67
2022/05/08 09:56:13;;;;;;;11.50;10.05;;;;;;;24.33;46.92;100865.22;5149053;27;20518;-67
2022/05/08 09:58:43;;;;;;;12.75;11.43;;;;;;;24.36;47.29;100864.78;5149302;27;20031;-67
2022/05/08 10:01:09;;;;;;;8.77;6.45;;;;;;;24.45;47.06;100883.56;5149238;27;20482;-68
2022/05/08 10:03:35;;;;;;;7.35;6.30;;;;;;;24.36;46.55;100873.88;5149427;27;20019;-75
2022/05/08 10:06:41;;;;;;;7.03;6.18;;;;;;;24.43;46.61;100874.72;5148932;27;20038;-69
2022/05/08 10:15:29;;;;;;;6.95;5.60;;;;;;;24.38;46.13;100848.97;5143815;27;20050;-67
2022/05/08 10:18:24;;;;;;;9.00;5.60;;;;;;;24.48;45.52;100862.25;5145675;27;20072;-68
2022/05/08 10:21:12;;;;;;;8.23;5.35;;;;;;;24.49;45.18;100856.56;5147151;27;20037;-69
2022/05/08 10:23:45;;;;;;;6.40;5.57;;;;;;;24.48;44.99;100859.50;5145108;27;20363;-71
2022/05/08 10:26:15;;;;;;;12.68;10.38;;;;;;;24.48;45.27;100855.72;5147765;27;20035;-71
2022/05/08 10:29:02;;;;;;;10.68;7.38;;;;;;;24.53;45.55;100854.25;5146181;27;20084;-72
2022/05/08 10:31:48;;;;;;;10.95;7.55;;;;;;;24.53;45.83;100851.50;5147349;27;20053;-72
2022/05/08 10:34:15;;;;;;;6.70;6.10;;;;;;;24.52;45.08;100852.53;5147620;27;20023;-71
2022/05/08 10:37:21;;;;;;;5.75;5.20;;;;;;;24.47;44.69;100842.22;5145833;27;20355;-72
2022/05/08 10:39:47;;;;;;;6.85;5.38;;;;;;;24.47;44.80;100844.94;5133224;27;20043;-71
2022/05/08 10:42:27;;;;;;;7.88;5.07;;;;;;;24.55;44.63;100852.97;5147313;27;20154;-72
2022/05/08 10:44:54;;;;;;;8.73;5.95;;;;;;;24.57;44.39;100852.75;5145233;27;20403;-72
2022/05/08 10:47:40;;;;;;;6.60;5.90;;;;;;;24.58;44.53;100847.06;5132885;27;20042;-71
2022/05/08 10:50:13;;;;;;;7.50;5.85;;;;;;;24.58;44.63;100846.22;5132165;27;20070;-72
2022/05/08 10:52:46;;;;;;;7.10;5.63;;;;;;;24.52;44.30;100830.59;5132912;27;20022;-71
2022/05/08 10:55:17;;;;;;;5.95;5.38;;;;;;;24.51;44.38;100834.41;5133227;27;20075;-72
2022/05/08 10:57:53;;;;;;;7.20;4.80;;;;;;;24.63;44.29;100839.03;5133416;27;20118;-71
2022/05/08 11:00:21;;;;;;;6.25;5.75;;;;;;;24.62;44.82;100837.34;5130995;27;20478;-70
2022/05/08 11:02:54;;;;;;;10.30;5.78;;;;;;;24.61;44.65;100838.41;5132894;27;20585;-72
2022/05/08 11:05:27;;;;;;;7.28;5.18;;;;;;;24.64;44.99;100827.06;5131681;27;20076;-67
2022/05/08 11:07:57;;;;;;;7.03;5.72;;;;;;;24.72;45.20;100834.19;5132454;27;20027;-68
2022/05/08 11:10:24;;;;;;;6.15;5.55;;;;;;;24.72;45.43;100823.22;5132095;27;20053;-67
2022/05/08 11:13:05;;;;;;;8.75;5.68;;;;;;;24.78;44.76;100830.59;5132772;27;20015;-66
2022/05/08 11:15:38;;;;;;;17.38;6.28;;;;;;;24.66;43.65;100822.16;5132100;27;20089;-66
2022/05/08 11:18:03;;;;;;;7.13;5.57;;;;;;;24.61;43.97;100821.97;5132839;27;20023;-67
2022/05/08 11:20:31;;;;;;;7.63;5.75;;;;;;;24.55;43.77;100813.72;5130190;27;20286;-66
2022/05/08 11:22:57;;;;;;;6.13;5.40;;;;;;;24.58;44.61;100810.56;5131043;27;20114;-67
2022/05/08 11:25:23;;;;;;;6.55;5.88;;;;;;;24.54;44.38;100815.63;5131595;27;20559;-66
2022/05/08 11:27:55;;;;;;;7.43;5.22;;;;;;;24.56;44.31;100802.53;5130920;27;20031;-66
2022/05/08 11:30:29;;;;;;;5.78;5.28;;;;;;;24.57;44.45;100797.91;5131770;27;20027;-66
2022/05/08 11:38:53;;;;;;;6.03;4.80;;;;;;;24.70;44.38;100796.03;5131112;27;20088;-67
2022/05/08 11:41:38;;;;;;;6.22;5.63;;;;;;;24.71;44.29;100805.06;5129265;27;20015;-67
2022/05/08 11:44:13;;;;;;;5.47;4.97;;;;;;;24.68;43.24;100797.25;5128334;27;20050;-67
2022/05/08 11:46:47;;;;;;;6.30;5.20;;;;;;;24.62;42.74;100796.19;5130172;27;20031;-66
2022/05/08 11:49:18;;;;;;;7.45;6.07;;;;;;;24.62;43.44;100800.84;5130698;27;20083;-66
2022/05/08 11:51:49;;;;;;;11.00;5.35;;;;;;;24.60;43.69;100789.25;5131502;27;20486;-66
2022/05/08 11:54:27;;;;;;;6.13;5.13;;;;;;;24.64;43.48;100787.78;5128970;27;20442;-67
2022/05/08 11:57:19;;;;;;;5.95;5.35;;;;;;;24.67;42.62;100796.44;5116593;27;20042;-66
2022/05/08 11:59:50;;;;;;;6.88;5.32;;;;;;;24.67;43.52;100787.38;5131124;27;20552;-67
2022/05/08 12:02:17;;;;;;;6.90;5.50;;;;;;;24.64;43.39;100780.41;5130668;27;20576;-67
2022/05/08 12:04:57;;;;;;;7.95;5.85;;;;;;;24.64;42.77;100783.16;5130185;27;20118;-66
2022/05/08 12:07:23;;;;;;;10.25;6.15;;;;;;;24.62;43.37;100777.00;5128815;27;20031;-66
2022/05/08 12:09:48;;;;;;;6.47;5.18;;;;;;;24.63;42.82;100781.41;5129579;27;20039;-66
2022/05/08 12:12:33;;;;;;;7.78;5.80;;;;;;;24.62;42.87;100787.13;5131005;27;20023;-66
2022/05/08 12:15:08;;;;;;;6.18;4.97;;;;;;;24.62;42.71;100781.63;5131570;27;20031;-72
2022/05/08 12:17:39;;;;;;;6.50;5.47;;;;;;;24.62;42.64;100773.41;5125716;27;20031;-72
2022/05/08 12:20:08;;;;;;;5.50;4.63;;;;;;;24.65;42.88;100764.78;5124454;27;20035;-71
2022/05/08 12:22:34;;;;;;;11.02;5.10;;;;;;;24.67;42.58;100779.97;5123460;27;20027;-73